createdAt,value
2023-04-17T00:01:31.495Z,102370.56
2023-04-17T00:03:58.562Z,102376.00
2023-04-17T00:06:27.216Z,102377.22
2023-04-17T00:08:54.203Z,102391.25
2023-04-17T00:11:22.504Z,102382.28
2023-04-17T00:13:49.269Z,102374.91
2023-04-17T00:16:15.973Z,102373.56
2023-04-17T00:18:42.633Z,102375.03
2023-04-17T00:21:09.771Z,102382.09
2023-04-17T00:23:36.521Z,102378.72
2023-04-17T00:26:03.381Z,102376.97
2023-04-17T00:28:30.508Z,102368.91
2023-04-17T00:30:59.027Z,102363.16
2023-04-17T00:33:25.676Z,102375.56
2023-04-17T00:45:17.306Z,102363.13
2023-04-17T00:47:44.085Z,102359.63
2023-04-17T00:50:11.044Z,102356.34
2023-04-17T00:52:38.098Z,102356.19
2023-04-17T00:55:05.137Z,102354.69
2023-04-17T00:57:31.956Z,102351.72
2023-04-17T00:59:58.999Z,102349.66
2023-04-17T01:02:26.917Z,102354.94
2023-04-17T01:04:53.641Z,102350.00
2023-04-17T01:07:20.310Z,102353.47
2023-04-17T01:09:47.911Z,102355.34
2023-04-17T01:12:22.209Z,102353.56
2023-04-17T01:14:56.525Z,102355.88
2023-04-17T01:17:26.235Z,102355.88
2023-04-17T01:19:53.950Z,102358.91
2023-04-17T01:22:21.381Z,102349.19
2023-04-17T01:24:51.457Z,102353.66
2023-04-17T01:27:18.303Z,102348.38
2023-04-17T01:29:45.957Z,102348.44
2023-04-17T01:32:12.642Z,102353.09
2023-04-17T01:41:23.048Z,102352.16
2023-04-17T01:43:56.352Z,102357.97
2023-04-17T01:46:23.178Z,102362.53
2023-04-17T01:48:50.174Z,102356.94
2023-04-17T01:51:16.801Z,102364.91
2023-04-17T01:53:43.330Z,102362.94
2023-04-17T01:56:09.972Z,102366.84
2023-04-17T01:58:36.850Z,102363.66
2023-04-17T02:01:04.537Z,102370.63
2023-04-17T02:03:32.716Z,102363.81
2023-04-17T02:05:59.748Z,102363.81
2023-04-17T02:08:27.094Z,102365.19
2023-04-17T02:10:53.643Z,102368.88
2023-04-17T02:13:20.643Z,102370.31
2023-04-17T02:15:50.197Z,102365.41
2023-04-17T02:18:17.045Z,102376.13
2023-04-17T02:20:43.802Z,102363.94
2023-04-17T02:23:10.474Z,102359.34
2023-04-17T02:25:37.133Z,102365.81
2023-04-17T02:28:04.310Z,102367.41
2023-04-17T02:30:31.100Z,102366.81
2023-04-17T02:32:58.682Z,102359.06
2023-04-17T02:35:30.884Z,102368.66
2023-04-17T02:37:58.205Z,102368.06
2023-04-17T02:40:26.361Z,102363.78
2023-04-17T02:42:59.890Z,102357.47
2023-04-17T02:45:26.793Z,102358.38
2023-04-17T02:47:53.790Z,102354.97
2023-04-17T02:50:20.944Z,102356.75
2023-04-17T02:53:01.311Z,102354.00
2023-04-17T02:55:28.189Z,102352.25
2023-04-17T02:57:54.786Z,102354.97
2023-04-17T03:00:22.927Z,102347.91
2023-04-17T03:02:50.123Z,102351.91
2023-04-17T03:05:20.407Z,102362.66
2023-04-17T03:07:47.257Z,102356.56
2023-04-17T03:10:14.524Z,102372.19
2023-04-17T03:12:41.476Z,102364.31
2023-04-17T03:15:09.046Z,102367.66
2023-04-17T03:17:35.987Z,102370.22
2023-04-17T03:20:04.142Z,102370.16
2023-04-17T03:22:33.679Z,102370.59
2023-04-17T03:25:00.704Z,102368.94
2023-04-17T03:27:35.296Z,102363.66
2023-04-17T03:30:03.471Z,102363.31
2023-04-17T03:32:32.875Z,102361.44
2023-04-17T03:34:59.539Z,102356.88
2023-04-17T03:37:26.960Z,102364.00
2023-04-17T03:39:55.643Z,102364.16
2023-04-17T03:42:26.420Z,102361.19
2023-04-17T03:44:53.123Z,102374.97
2023-04-17T03:47:19.732Z,102366.94
2023-04-17T03:49:48.943Z,102366.94
2023-04-17T03:52:17.236Z,102364.94
2023-04-17T03:54:46.520Z,102368.50
2023-04-17T03:57:13.174Z,102365.78
2023-04-17T03:59:39.734Z,102367.84
2023-04-17T04:02:07.119Z,102371.88
2023-04-17T04:04:36.209Z,102363.53
2023-04-17T04:07:10.676Z,102367.59
2023-04-17T04:09:37.868Z,102372.31
2023-04-17T04:12:06.360Z,102377.31
2023-04-17T04:14:41.630Z,102369.94
2023-04-17T04:17:09.478Z,102364.00
2023-04-17T04:19:36.257Z,102356.34
2023-04-17T04:22:06.673Z,102365.03
2023-04-17T04:24:43.551Z,102365.00
2023-04-17T04:27:13.156Z,102363.72
2023-04-17T04:29:40.079Z,102367.88
2023-04-17T04:32:09.693Z,102368.72
2023-04-17T04:34:42.022Z,102374.69
2023-04-17T04:37:08.784Z,102368.75
2023-04-17T04:39:41.845Z,102379.03
2023-04-17T04:42:12.812Z,102378.84
2023-04-17T04:44:56.067Z,102383.56
2023-04-17T04:47:25.971Z,102376.34
2023-04-17T04:49:53.776Z,102386.63
2023-04-17T04:52:21.872Z,102389.94
2023-04-17T04:54:50.306Z,102382.41
2023-04-17T04:57:17.227Z,102390.09
2023-04-17T04:59:46.669Z,102391.41
2023-04-17T05:02:26.255Z,102393.53
2023-04-17T05:04:53.824Z,102393.75
2023-04-17T05:07:20.764Z,102385.91
2023-04-17T05:09:47.974Z,102389.16
2023-04-17T05:12:16.295Z,102395.09
2023-04-17T05:14:44.046Z,102387.50
2023-04-17T05:17:11.020Z,102398.41
2023-04-17T05:19:38.500Z,102402.91
2023-04-17T05:22:08.361Z,102406.22
2023-04-17T05:24:42.109Z,102403.78
2023-04-17T05:27:09.693Z,102411.06
2023-04-17T05:29:37.508Z,102404.94
2023-04-17T05:32:04.525Z,102409.25
2023-04-17T05:34:53.931Z,102401.97
2023-04-17T05:37:24.713Z,102404.50
2023-04-17T05:39:51.631Z,102405.44
2023-04-17T05:42:18.398Z,102405.19
2023-04-17T05:44:45.930Z,102415.53
2023-04-17T05:47:12.676Z,102410.13
2023-04-17T05:49:39.384Z,102418.06
2023-04-17T05:52:06.034Z,102424.00
2023-04-17T05:54:36.539Z,102424.78
2023-04-17T05:57:03.594Z,102425.41
2023-04-17T05:59:30.434Z,102421.41
2023-04-17T06:02:00.037Z,102411.59
2023-04-17T06:04:27.022Z,102426.31
2023-04-17T06:06:53.955Z,102427.31
2023-04-17T06:09:21.427Z,102429.00
2023-04-17T06:11:49.294Z,102430.38
2023-04-17T06:14:16.668Z,102428.41
2023-04-17T06:16:43.977Z,102448.16
2023-04-17T06:19:11.392Z,102441.63
2023-04-17T06:21:38.477Z,102450.06
2023-04-17T06:24:05.773Z,102448.75
2023-04-17T06:26:32.600Z,102449.53
2023-04-17T06:29:03.083Z,102450.78
2023-04-17T06:31:32.971Z,102452.81
2023-04-17T06:33:59.754Z,102458.56
2023-04-17T06:36:33.423Z,102457.00
2023-04-17T06:39:03.758Z,102457.72
2023-04-17T06:41:30.938Z,102461.75
2023-04-17T06:43:57.735Z,102461.81
2023-04-17T06:46:27.396Z,102467.75
2023-04-17T06:48:58.146Z,102457.84
2023-04-17T06:51:27.648Z,102449.94
2023-04-17T06:53:55.372Z,102453.25
2023-04-17T06:56:24.954Z,102456.66
2023-04-17T06:58:53.124Z,102464.66
2023-04-17T07:01:22.751Z,102458.69
2023-04-17T07:03:49.688Z,102468.16
2023-04-17T07:06:17.055Z,102459.72
2023-04-17T07:08:43.777Z,102472.78
2023-04-17T07:11:10.544Z,102471.22
2023-04-17T07:13:37.187Z,102474.81
2023-04-17T07:16:06.070Z,102473.38
2023-04-17T07:18:33.052Z,102469.63
2023-04-17T07:21:00.055Z,102477.44
2023-04-17T07:23:28.958Z,102475.03
2023-04-17T07:25:55.554Z,102475.09
2023-04-17T07:28:22.415Z,102484.34
2023-04-17T07:30:49.491Z,102482.06
2023-04-17T07:33:16.269Z,102493.41
2023-04-17T07:35:43.435Z,102496.06
2023-04-17T07:38:10.091Z,102503.13
2023-04-17T07:40:37.176Z,102495.47
2023-04-17T07:43:04.183Z,102503.78
2023-04-17T07:45:32.218Z,102501.00
2023-04-17T07:47:58.919Z,102495.44
2023-04-17T07:50:25.813Z,102491.34
2023-04-17T07:52:52.591Z,102508.25
2023-04-17T07:55:21.507Z,102503.78
2023-04-17T07:57:51.498Z,102504.34
2023-04-17T08:00:19.027Z,102499.06
2023-04-17T08:02:46.047Z,102498.59
2023-04-17T08:05:15.234Z,102510.53
2023-04-17T08:07:43.366Z,102516.44
2023-04-17T08:10:10.573Z,102502.75
2023-04-17T08:12:38.528Z,102515.06
2023-04-17T08:15:05.648Z,102507.94
2023-04-17T08:17:33.337Z,102516.13
2023-04-17T08:20:02.114Z,102518.00
2023-04-17T08:22:29.226Z,102509.22
2023-04-17T08:25:01.756Z,102508.66
2023-04-17T08:27:28.766Z,102510.97
2023-04-17T08:29:55.455Z,102516.28
2023-04-17T08:32:22.167Z,102511.88
2023-04-17T08:34:48.974Z,102515.47
2023-04-17T08:37:16.327Z,102508.44
2023-04-17T08:39:43.231Z,102509.31
2023-04-17T08:42:15.305Z,102506.72
2023-04-17T08:44:43.364Z,102511.84
2023-04-17T08:47:10.085Z,102513.97
2023-04-17T08:49:36.832Z,102512.53
2023-04-17T08:52:05.538Z,102514.13
2023-04-17T08:54:35.088Z,102521.75
2023-04-17T08:57:05.938Z,102518.03
2023-04-17T08:59:33.199Z,102518.34
2023-04-17T09:02:08.211Z,102519.13
2023-04-17T09:04:38.063Z,102529.59
2023-04-17T09:07:07.144Z,102522.91
2023-04-17T09:09:53.890Z,102532.53
2023-04-17T09:12:22.861Z,102523.28
2023-04-17T09:14:50.227Z,102529.84
2023-04-17T09:17:18.900Z,102524.63
2023-04-17T09:20:07.252Z,102536.72
2023-04-17T09:22:35.281Z,102536.53
2023-04-17T09:25:05.295Z,102539.72
2023-04-17T09:27:32.589Z,102537.06
2023-04-17T09:30:05.099Z,102539.88
2023-04-17T09:32:34.385Z,102529.78
2023-04-17T09:35:03.490Z,102542.41
2023-04-17T09:37:50.030Z,102533.19
2023-04-17T09:40:18.819Z,102541.22
2023-04-17T09:43:03.058Z,102522.97
2023-04-17T09:45:36.826Z,102529.97
2023-04-17T09:48:07.935Z,102533.88
2023-04-17T09:50:36.615Z,102524.56
2023-04-17T09:53:05.390Z,102519.75
2023-04-17T09:55:33.882Z,102521.88
2023-04-17T09:58:05.138Z,102523.09
2023-04-17T10:00:33.626Z,102513.41
2023-04-17T10:03:00.789Z,102515.94
2023-04-17T10:05:32.446Z,102523.28
2023-04-17T10:07:59.688Z,102517.75
2023-04-17T10:10:30.084Z,102518.59
2023-04-17T10:12:59.397Z,102520.88
2023-04-17T10:15:27.040Z,102516.56
2023-04-17T10:17:57.923Z,102517.16
2023-04-17T10:20:28.355Z,102522.16
2023-04-17T10:22:56.355Z,102522.19
2023-04-17T10:25:26.922Z,102524.31
2023-04-17T10:27:58.556Z,102517.69
2023-04-17T10:33:59.737Z,102523.00
2023-04-17T10:37:01.542Z,102527.00
2023-04-17T10:39:28.460Z,102511.84
2023-04-17T10:42:03.671Z,102519.69
2023-04-17T10:44:34.302Z,102513.41
2023-04-17T10:47:08.188Z,102511.38
2023-04-17T10:49:59.466Z,102510.75
2023-04-17T10:52:52.245Z,102510.75
2023-04-17T10:55:23.174Z,102498.13
2023-04-17T10:58:09.962Z,102497.06
2023-04-17T11:01:15.353Z,102501.97
2023-04-17T11:03:46.995Z,102491.03
2023-04-17T11:06:22.607Z,102501.59
2023-04-17T11:09:06.074Z,102506.41
2023-04-17T11:12:21.308Z,102488.91
2023-04-17T11:15:06.987Z,102496.94
2023-04-17T11:18:00.885Z,102501.00
2023-04-17T11:23:19.069Z,102496.31
2023-04-17T11:25:46.214Z,102494.97
2023-04-17T11:28:13.069Z,102495.59
2023-04-17T11:30:44.370Z,102486.59
2023-04-17T11:33:12.687Z,102493.47
2023-04-17T11:35:42.277Z,102499.56
2023-04-17T11:38:20.684Z,102493.13
2023-04-17T11:41:01.997Z,102488.22
2023-04-17T11:43:32.475Z,102487.84
2023-04-17T11:46:01.980Z,102483.06
2023-04-17T11:48:31.448Z,102489.06
2023-04-17T11:51:01.882Z,102484.66
2023-04-17T11:53:29.902Z,102488.06
2023-04-17T11:56:17.963Z,102479.88
2023-04-17T11:58:53.082Z,102470.75
2023-04-17T12:01:25.299Z,102475.69
2023-04-17T12:04:01.224Z,102470.22
2023-04-17T12:06:38.949Z,102471.78
2023-04-17T12:09:07.237Z,102473.34
2023-04-17T12:11:36.803Z,102465.59
2023-04-17T12:14:05.201Z,102462.81
2023-04-17T12:16:35.129Z,102463.81
2023-04-17T12:19:02.123Z,102466.00
2023-04-17T12:21:29.285Z,102466.34
2023-04-17T12:23:56.016Z,102467.44
2023-04-17T12:26:25.093Z,102465.75
2023-04-17T12:28:52.050Z,102466.88
2023-04-17T12:31:18.712Z,102473.91
2023-04-17T12:33:47.382Z,102472.78
2023-04-17T12:36:14.250Z,102472.00
2023-04-17T12:38:43.139Z,102473.31
2023-04-17T12:41:12.500Z,102482.22
2023-04-17T12:43:41.279Z,102466.59
2023-04-17T12:46:08.020Z,102465.19
2023-04-17T12:48:35.354Z,102464.25
2023-04-17T12:51:03.460Z,102477.09
2023-04-17T12:53:30.220Z,102466.53
2023-04-17T12:55:58.025Z,102464.78
2023-04-17T12:58:25.768Z,102469.91
2023-04-17T13:00:52.736Z,102451.72
2023-04-17T13:03:19.499Z,102460.88
2023-04-17T13:05:47.060Z,102460.81
2023-04-17T13:08:15.190Z,102463.47
2023-04-17T13:10:42.626Z,102462.97
2023-04-17T13:13:09.795Z,102445.38
2023-04-17T13:15:37.002Z,102451.47
2023-04-17T13:18:04.148Z,102458.38
2023-04-17T13:20:33.112Z,102454.50
2023-04-17T13:23:00.011Z,102449.19
2023-04-17T13:25:26.787Z,102459.88
2023-04-17T13:27:55.797Z,102447.94
2023-04-17T13:30:23.036Z,102450.66
2023-04-17T13:32:49.992Z,102447.69
2023-04-17T13:35:16.877Z,102447.41
2023-04-17T13:37:43.588Z,102450.38
2023-04-17T13:40:10.818Z,102449.97
2023-04-17T13:42:37.981Z,102438.94
2023-04-17T13:45:07.456Z,102443.34
2023-04-17T13:47:34.155Z,102424.16
2023-04-17T13:50:03.580Z,102429.38
2023-04-17T13:52:30.336Z,102424.91
2023-04-17T13:54:59.694Z,102423.69
2023-04-17T13:57:26.947Z,102417.44
2023-04-17T13:59:53.664Z,102420.59
2023-04-17T14:02:30.587Z,102420.44
2023-04-17T14:05:08.844Z,102414.13
2023-04-17T14:07:35.553Z,102405.88
2023-04-17T14:10:03.345Z,102416.28
2023-04-17T14:12:44.186Z,102414.50
2023-04-17T14:15:11.166Z,102404.28
2023-04-17T14:17:43.354Z,102407.38
2023-04-17T14:20:19.365Z,102408.03
2023-04-17T14:22:49.092Z,102404.47
2023-04-17T14:25:24.072Z,102384.69
2023-04-17T14:27:57.152Z,102397.16
2023-04-17T14:30:26.151Z,102385.50
2023-04-17T14:32:53.507Z,102396.31
2023-04-17T14:35:20.847Z,102406.53
2023-04-17T14:37:47.431Z,102394.47
2023-04-17T14:40:14.247Z,102384.91
2023-04-17T14:42:53.673Z,102390.88
2023-04-17T14:45:21.386Z,102384.84
2023-04-17T14:47:48.125Z,102382.97
2023-04-17T14:50:14.953Z,102371.00
2023-04-17T14:52:41.907Z,102383.44
2023-04-17T14:55:09.109Z,102385.25
2023-04-17T14:57:35.684Z,102381.09
2023-04-17T15:00:03.057Z,102368.53
2023-04-17T15:02:30.985Z,102379.34
2023-04-17T15:05:06.889Z,102369.78
2023-04-17T15:07:33.931Z,102372.56
2023-04-17T15:10:00.852Z,102370.50
2023-04-17T15:12:27.833Z,102367.19
2023-04-17T15:14:59.121Z,102369.97
2023-04-17T15:17:25.837Z,102375.19
2023-04-17T15:19:55.525Z,102358.09
2023-04-17T15:22:22.219Z,102362.53
2023-04-17T15:24:48.848Z,102360.91
2023-04-17T15:27:15.453Z,102359.56
2023-04-17T15:29:42.139Z,102360.72
2023-04-17T15:32:08.899Z,102359.06
2023-04-17T15:34:35.602Z,102343.75
2023-04-17T15:37:02.256Z,102362.84
2023-04-17T15:39:29.172Z,102352.97
2023-04-17T15:41:57.205Z,102354.94
2023-04-17T15:44:24.380Z,102348.84
2023-04-17T15:46:56.284Z,102352.25
2023-04-17T15:49:24.882Z,102349.38
2023-04-17T15:51:55.918Z,102346.69
2023-04-17T15:54:23.078Z,102332.28
2023-04-17T15:56:49.808Z,102348.25
2023-04-17T15:59:16.389Z,102340.22
2023-04-17T16:01:44.052Z,102345.84
2023-04-17T16:04:11.178Z,102342.69
2023-04-17T16:06:37.816Z,102348.53
2023-04-17T16:09:04.574Z,102338.25
2023-04-17T16:11:32.328Z,102339.75
2023-04-17T16:13:58.974Z,102336.28
2023-04-17T16:16:28.017Z,102334.56
2023-04-17T16:18:57.879Z,102339.50
2023-04-17T16:21:25.086Z,102339.88
2023-04-17T16:23:52.003Z,102347.06
2023-04-17T16:26:18.521Z,102352.69
2023-04-17T16:28:46.401Z,102347.22
2023-04-17T16:31:16.912Z,102341.91
2023-04-17T16:33:52.196Z,102332.84
2023-04-17T16:36:23.056Z,102347.75
2023-04-17T16:39:03.616Z,102352.03
2023-04-17T16:41:31.165Z,102340.38
2023-04-17T16:44:11.193Z,102337.97
2023-04-17T16:49:28.030Z,102337.19
2023-04-17T16:51:55.718Z,102338.19
2023-04-17T16:54:23.375Z,102338.59
2023-04-17T16:57:07.561Z,102337.94
2023-04-17T16:59:40.379Z,102343.38
2023-04-17T17:05:13.655Z,102344.97
2023-04-17T17:07:48.212Z,102347.69
2023-04-17T17:10:35.221Z,102340.84
2023-04-17T17:13:19.060Z,102339.19
2023-04-17T17:15:52.450Z,102354.84
2023-04-17T17:18:24.362Z,102348.13
2023-04-17T17:20:56.040Z,102353.13
2023-04-17T17:23:33.616Z,102361.00
2023-04-17T17:26:01.275Z,102355.44
2023-04-17T17:28:27.873Z,102351.72
2023-04-17T17:31:03.819Z,102355.44
2023-04-17T17:33:32.262Z,102356.16
2023-04-17T17:35:59.178Z,102347.00
2023-04-17T17:38:32.852Z,102340.31
2023-04-17T17:41:50.545Z,102337.59
2023-04-17T17:44:17.611Z,102346.13
2023-04-17T17:46:44.997Z,102352.84
2023-04-17T17:49:11.723Z,102350.06
2023-04-17T17:51:38.524Z,102356.47
2023-04-17T17:54:07.346Z,102351.66
2023-04-17T17:56:34.942Z,102355.94
2023-04-17T17:59:02.975Z,102358.97
2023-04-17T18:01:29.636Z,102354.94
2023-04-17T18:03:56.543Z,102350.88
2023-04-17T18:06:23.314Z,102353.38
2023-04-17T18:08:56.806Z,102358.00
2023-04-17T18:11:27.250Z,102356.97
2023-04-17T18:13:56.281Z,102355.63
2023-04-17T18:16:23.149Z,102358.78
2023-04-17T18:18:49.806Z,102364.19
2023-04-17T18:21:16.326Z,102354.84
2023-04-17T18:23:43.462Z,102368.25
2023-04-17T18:26:10.337Z,102372.22
2023-04-17T18:28:37.041Z,102371.75
2023-04-17T18:31:03.686Z,102367.75
2023-04-17T18:33:30.735Z,102359.09
2023-04-17T18:35:57.342Z,102373.25
2023-04-17T18:38:24.378Z,102363.72
2023-04-17T18:40:57.065Z,102370.91
2023-04-17T18:43:23.775Z,102372.25
2023-04-17T18:45:51.703Z,102366.47
2023-04-17T18:48:20.425Z,102368.22
2023-04-17T18:50:47.610Z,102371.88
2023-04-17T18:53:14.508Z,102371.09
2023-04-17T18:55:41.296Z,102367.25
2023-04-17T18:58:07.865Z,102371.22
2023-04-17T19:00:34.532Z,102377.31
2023-04-17T19:03:02.385Z,102374.75
2023-04-17T19:05:29.329Z,102377.94
2023-04-17T19:07:56.238Z,102382.88
2023-04-17T19:10:23.090Z,102382.91
2023-04-17T19:12:49.694Z,102385.47
2023-04-17T19:15:17.684Z,102380.84
2023-04-17T19:17:44.343Z,102379.16
2023-04-17T19:20:11.237Z,102379.22
2023-04-17T19:22:38.613Z,102386.38
2023-04-17T19:25:05.521Z,102395.44
2023-04-17T19:27:32.291Z,102391.25
2023-04-17T19:29:58.839Z,102390.84
2023-04-17T19:32:25.922Z,102394.00
2023-04-17T19:34:52.537Z,102388.41
2023-04-17T19:37:19.242Z,102391.72
2023-04-17T19:39:45.941Z,102392.28
2023-04-17T19:42:12.528Z,102385.50
2023-04-17T19:44:39.107Z,102383.69
2023-04-17T19:47:06.202Z,102384.69
2023-04-17T19:49:32.949Z,102395.63
2023-04-17T19:52:02.950Z,102397.69
2023-04-17T19:54:29.572Z,102394.19
2023-04-17T19:56:56.298Z,102406.19
2023-04-17T19:59:25.912Z,102401.09
2023-04-17T20:01:52.749Z,102393.16
2023-04-17T20:04:19.758Z,102396.41
2023-04-17T20:06:46.546Z,102397.25
2023-04-17T20:09:14.863Z,102404.75
2023-04-17T20:11:42.163Z,102399.66
2023-04-17T20:14:08.796Z,102411.38
2023-04-17T20:16:35.842Z,102404.06
2023-04-17T20:19:02.515Z,102407.38
2023-04-17T20:21:29.257Z,102415.03
2023-04-17T20:23:56.171Z,102404.31
2023-04-17T20:26:22.845Z,102407.84
2023-04-17T20:28:49.406Z,102413.34
2023-04-17T20:31:16.383Z,102417.34
2023-04-17T20:33:43.092Z,102419.91
2023-04-17T20:36:12.504Z,102404.91
2023-04-17T20:38:39.566Z,102411.31
2023-04-17T20:41:06.197Z,102412.88
2023-04-17T20:43:32.947Z,102412.38
2023-04-17T20:45:59.817Z,102410.88
2023-04-17T20:48:26.783Z,102405.78
2023-04-17T20:50:53.592Z,102411.97
2023-04-17T20:53:20.362Z,102407.25
2023-04-17T20:55:47.425Z,102402.63
2023-04-17T20:58:13.975Z,102396.59
2023-04-17T21:00:50.706Z,102398.03
2023-04-17T21:03:24.917Z,102396.03
2023-04-17T21:05:51.772Z,102394.66
2023-04-17T21:08:18.416Z,102391.88
2023-04-17T21:10:45.023Z,102395.63
2023-04-17T21:13:11.586Z,102393.94
2023-04-17T21:15:38.259Z,102388.88
2023-04-17T21:18:05.152Z,102383.00
2023-04-17T21:20:33.510Z,102395.03
2023-04-17T21:23:00.324Z,102396.84
2023-04-17T21:25:27.515Z,102392.09
2023-04-17T21:27:54.450Z,102388.03
2023-04-17T21:30:22.453Z,102390.06
2023-04-17T21:32:49.074Z,102384.75
2023-04-17T21:35:15.740Z,102395.19
2023-04-17T21:37:42.333Z,102391.50
2023-04-17T21:40:09.288Z,102398.00
2023-04-17T21:42:36.107Z,102395.31
2023-04-17T21:45:02.714Z,102399.72
2023-04-17T21:47:29.297Z,102393.13
2023-04-17T21:49:56.065Z,102395.50
2023-04-17T21:52:22.622Z,102401.09
2023-04-17T21:54:49.198Z,102394.75
2023-04-17T21:57:15.786Z,102402.94
2023-04-17T21:59:42.368Z,102394.34
2023-04-17T22:02:09.032Z,102396.44
2023-04-17T22:04:35.588Z,102401.38
2023-04-17T22:07:02.299Z,102401.53
2023-04-17T22:09:29.284Z,102405.91
2023-04-17T22:11:56.786Z,102403.41
2023-04-17T22:14:23.466Z,102410.16
2023-04-17T22:16:50.301Z,102393.94
2023-04-17T22:19:16.858Z,102408.28
2023-04-17T22:21:45.572Z,102403.69
2023-04-17T22:24:12.483Z,102400.13
2023-04-17T22:26:39.187Z,102407.78
2023-04-17T22:29:06.404Z,102411.53
2023-04-17T22:31:33.652Z,102400.59
2023-04-17T22:34:00.289Z,102412.00
2023-04-17T22:36:27.309Z,102410.69
2023-04-17T22:38:53.930Z,102400.41
2023-04-17T22:41:20.766Z,102401.88
2023-04-17T22:43:50.531Z,102402.41
2023-04-17T22:46:17.195Z,102397.66
2023-04-17T22:48:47.198Z,102403.69
2023-04-17T22:51:15.120Z,102407.41
2023-04-17T22:53:42.969Z,102407.97
2023-04-17T22:56:13.681Z,102404.41
2023-04-17T22:58:40.352Z,102407.59
2023-04-17T23:01:07.380Z,102398.13
2023-04-17T23:03:34.908Z,102402.59
2023-04-17T23:06:01.607Z,102391.31
2023-04-17T23:08:29.827Z,102396.03
2023-04-17T23:11:01.109Z,102391.50
2023-04-17T23:13:28.306Z,102393.94
2023-04-17T23:15:55.038Z,102391.31
2023-04-17T23:18:21.677Z,102390.97
2023-04-17T23:20:48.300Z,102395.97
2023-04-17T23:23:15.312Z,102392.38
2023-04-17T23:25:42.176Z,102397.47
2023-04-17T23:28:08.838Z,102395.75
2023-04-17T23:30:35.678Z,102389.72
2023-04-17T23:33:02.714Z,102399.59
2023-04-17T23:35:29.388Z,102403.94
2023-04-17T23:37:55.958Z,102398.16
2023-04-17T23:40:22.518Z,102390.59
2023-04-17T23:42:49.099Z,102404.22
2023-04-17T23:45:15.729Z,102407.59
2023-04-17T23:47:42.526Z,102404.03
2023-04-17T23:50:09.771Z,102394.22
2023-04-17T23:52:36.658Z,102384.25
2023-04-17T23:55:03.897Z,102391.91
2023-04-17T23:57:30.868Z,102394.28
